createdAt,value
2024-01-03T00:00:06.491Z,2.30
2024-01-03T00:02:33.787Z,3.40
2024-01-03T00:05:01.276Z,6.40
2024-01-03T00:07:28.749Z,3.20
2024-01-03T00:09:57.091Z,3.90
2024-01-03T00:12:24.625Z,4.20
2024-01-03T00:14:52.714Z,3.00
2024-01-03T00:17:20.637Z,2.70
2024-01-03T00:19:53.279Z,5.60
2024-01-03T00:22:25.962Z,8.20
2024-01-03T00:25:00.537Z,9.70
2024-01-03T00:27:28.469Z,6.20
2024-01-03T00:30:04.309Z,10.00
2024-01-03T00:32:31.881Z,7.90
2024-01-03T00:35:00.607Z,6.60
2024-01-03T00:37:29.866Z,5.20
2024-01-03T00:39:58.069Z,5.50
2024-01-03T00:42:25.716Z,10.00
2024-01-03T00:44:53.123Z,7.70
2024-01-03T00:47:20.577Z,7.40
2024-01-03T00:49:48.414Z,9.10
2024-01-03T00:52:15.721Z,6.60
2024-01-03T00:54:43.050Z,7.00
2024-01-03T00:57:10.555Z,9.50
2024-01-03T00:59:39.118Z,11.20
2024-01-03T01:02:06.613Z,8.60
2024-01-03T01:04:33.989Z,9.60
2024-01-03T01:07:01.305Z,11.00
2024-01-03T01:09:28.658Z,13.70
2024-01-03T01:11:55.950Z,13.40
2024-01-03T01:14:23.326Z,11.90
2024-01-03T01:16:50.686Z,9.30
2024-01-03T01:19:18.298Z,13.40
2024-01-03T01:21:45.715Z,11.70
2024-01-03T01:24:13.028Z,13.90
2024-01-03T01:26:41.087Z,9.20
2024-01-03T01:29:08.687Z,7.50
2024-01-03T01:31:36.009Z,9.70
2024-01-03T01:34:03.417Z,10.20
2024-01-03T01:36:30.791Z,10.00
2024-01-03T01:38:59.002Z,9.90
2024-01-03T01:41:26.376Z,7.50
2024-01-03T01:43:55.050Z,9.30
2024-01-03T01:46:22.399Z,5.90
2024-01-03T01:48:49.917Z,7.70
2024-01-03T01:51:17.429Z,6.40
2024-01-03T01:53:44.796Z,11.20
2024-01-03T01:56:12.281Z,10.70
2024-01-03T01:58:41.526Z,6.20
2024-01-03T02:01:09.008Z,6.90
2024-01-03T02:03:36.767Z,5.30
2024-01-03T02:06:05.747Z,8.70
2024-01-03T02:08:34.554Z,10.20
2024-01-03T02:11:02.791Z,9.00
2024-01-03T02:13:30.031Z,8.20
2024-01-03T02:15:58.017Z,7.00
2024-01-03T02:18:26.742Z,8.80
2024-01-03T02:20:56.517Z,7.30
2024-01-03T02:23:24.629Z,9.20
2024-01-03T02:25:52.633Z,9.30
2024-01-03T02:28:20.007Z,8.80
2024-01-03T02:30:49.606Z,13.80
2024-01-03T02:33:17.161Z,12.00
2024-01-03T02:35:44.774Z,10.50
2024-01-03T02:38:12.114Z,11.50
2024-01-03T02:40:39.500Z,14.60
2024-01-03T02:43:06.759Z,11.10
2024-01-03T02:45:34.036Z,8.50
2024-01-03T02:48:02.771Z,9.90
2024-01-03T02:50:30.294Z,10.60
2024-01-03T02:52:57.540Z,7.40
2024-01-03T02:55:24.790Z,10.40
2024-01-03T02:57:52.054Z,10.70
2024-01-03T03:00:19.422Z,9.90
2024-01-03T03:02:47.001Z,12.00
2024-01-03T03:05:14.333Z,11.00
2024-01-03T03:07:41.828Z,9.10
2024-01-03T03:10:13.070Z,7.80
2024-01-03T03:12:40.354Z,7.50
2024-01-03T03:15:08.221Z,9.40
2024-01-03T03:17:35.605Z,9.40
2024-01-03T03:20:03.204Z,7.80
2024-01-03T03:22:30.494Z,8.10
2024-01-03T03:24:57.762Z,9.80
2024-01-03T03:27:26.003Z,12.00
2024-01-03T03:29:53.829Z,17.10
2024-01-03T03:32:21.381Z,17.70
2024-01-03T03:34:48.710Z,13.80
2024-01-03T03:37:15.988Z,9.60
2024-01-03T03:39:43.260Z,6.00
2024-01-03T03:42:10.472Z,6.80
2024-01-03T03:44:41.752Z,5.50
2024-01-03T03:49:56.991Z,7.60
2024-01-03T03:52:24.360Z,7.90
2024-01-03T03:54:51.628Z,6.30
2024-01-03T03:57:18.928Z,6.10
2024-01-03T03:59:46.282Z,7.10
2024-01-03T04:02:13.760Z,8.20
2024-01-03T04:04:41.121Z,9.20
2024-01-03T04:07:08.701Z,7.40
2024-01-03T04:09:36.728Z,8.00
2024-01-03T04:12:04.603Z,8.80
2024-01-03T04:14:32.056Z,12.20
2024-01-03T04:16:59.453Z,10.80
2024-01-03T04:19:26.855Z,9.00
2024-01-03T04:21:54.280Z,10.90
2024-01-03T04:24:21.533Z,11.70
2024-01-03T04:26:48.914Z,8.80
2024-01-03T04:29:16.269Z,12.60
2024-01-03T04:31:43.647Z,13.90
2024-01-03T04:34:11.207Z,12.90
2024-01-03T04:36:38.648Z,11.90
2024-01-03T04:39:05.934Z,12.40
2024-01-03T04:41:33.270Z,10.60
2024-01-03T04:44:00.672Z,9.70
2024-01-03T04:46:28.024Z,11.00
2024-01-03T04:48:55.416Z,12.10
2024-01-03T04:51:23.340Z,13.00
2024-01-03T04:53:51.994Z,11.80
2024-01-03T04:56:19.372Z,12.70
2024-01-03T04:58:46.705Z,10.10
2024-01-03T05:01:13.981Z,11.20
2024-01-03T05:03:41.359Z,11.90
2024-01-03T05:06:09.192Z,10.20
2024-01-03T05:08:36.581Z,15.90
2024-01-03T05:11:03.969Z,13.20
2024-01-03T05:13:31.590Z,18.10
2024-01-03T05:15:58.888Z,16.60
2024-01-03T05:18:28.536Z,19.80
2024-01-03T05:20:56.162Z,20.30
2024-01-03T05:23:23.478Z,19.50
2024-01-03T05:25:50.732Z,17.60
2024-01-03T05:28:18.047Z,17.80
2024-01-03T05:30:45.338Z,17.90
2024-01-03T05:33:13.297Z,12.10
2024-01-03T05:35:40.793Z,13.50
2024-01-03T05:38:08.620Z,13.30
2024-01-03T05:40:36.107Z,11.20
2024-01-03T05:43:03.741Z,13.80
2024-01-03T05:45:31.002Z,8.50
2024-01-03T05:47:58.467Z,6.60
2024-01-03T05:50:25.838Z,9.10
2024-01-03T05:52:53.177Z,8.80
2024-01-03T05:55:20.436Z,11.70
2024-01-03T05:57:47.754Z,15.50
2024-01-03T06:00:16.960Z,9.40
2024-01-03T06:02:44.642Z,10.40
2024-01-03T06:05:18.138Z,12.20
2024-01-03T06:07:46.004Z,8.90
2024-01-03T06:10:13.532Z,12.70
2024-01-03T06:12:40.718Z,10.30
2024-01-03T06:15:08.696Z,12.00
2024-01-03T06:17:37.462Z,12.80
2024-01-03T06:20:05.929Z,9.00
2024-01-03T06:22:33.278Z,12.40
2024-01-03T06:25:00.562Z,9.50
2024-01-03T06:27:27.963Z,12.80
2024-01-03T06:29:55.421Z,11.50
2024-01-03T06:32:22.902Z,11.90
2024-01-03T06:34:50.256Z,12.80
2024-01-03T06:37:18.639Z,14.60
2024-01-03T06:39:45.952Z,20.10
2024-01-03T06:42:13.246Z,13.60
2024-01-03T06:44:40.713Z,13.60
2024-01-03T06:47:08.194Z,17.40
2024-01-03T06:49:35.607Z,16.50
2024-01-03T06:52:03.021Z,20.00
2024-01-03T06:54:30.423Z,19.40
2024-01-03T06:56:57.815Z,23.50
2024-01-03T06:59:25.153Z,18.60
2024-01-03T07:01:52.425Z,14.10
2024-01-03T07:04:25.796Z,14.80
2024-01-03T07:06:54.177Z,16.60
2024-01-03T07:09:21.906Z,15.30
2024-01-03T07:11:49.276Z,14.90
2024-01-03T07:14:16.708Z,17.20
2024-01-03T07:16:43.986Z,16.30
2024-01-03T07:19:12.039Z,16.00
2024-01-03T07:21:39.423Z,15.00
2024-01-03T07:24:07.194Z,13.30
2024-01-03T07:26:34.632Z,14.30
2024-01-03T07:29:02.001Z,11.40
2024-01-03T07:31:29.399Z,15.90
2024-01-03T07:33:56.884Z,15.20
2024-01-03T07:36:24.226Z,11.60
2024-01-03T07:38:51.483Z,12.50
2024-01-03T07:41:21.924Z,14.50
2024-01-03T07:43:49.309Z,16.90
2024-01-03T07:46:17.185Z,15.50
2024-01-03T07:48:44.727Z,13.10
2024-01-03T07:51:12.756Z,13.50
2024-01-03T07:53:40.070Z,13.30
2024-01-03T07:56:08.007Z,14.30
2024-01-03T07:58:35.322Z,11.60
2024-01-03T08:01:02.704Z,12.90
2024-01-03T08:03:30.079Z,14.90
2024-01-03T08:05:57.915Z,9.90
2024-01-03T08:08:25.865Z,12.60
2024-01-03T08:10:53.082Z,12.00
2024-01-03T08:13:20.432Z,10.60
2024-01-03T08:15:47.678Z,11.80
2024-01-03T08:18:15.244Z,14.30
2024-01-03T08:20:43.169Z,10.00
2024-01-03T08:23:11.188Z,10.40
2024-01-03T08:25:39.051Z,10.00
2024-01-03T08:28:06.717Z,13.30
2024-01-03T08:30:34.355Z,11.80
2024-01-03T08:33:01.830Z,12.40
2024-01-03T08:35:29.314Z,8.80
2024-01-03T08:37:57.194Z,10.60
2024-01-03T08:40:25.148Z,10.10
2024-01-03T08:42:53.129Z,11.20
2024-01-03T08:45:20.388Z,13.20
2024-01-03T08:47:49.184Z,13.50
2024-01-03T08:50:17.519Z,11.30
2024-01-03T08:52:45.491Z,12.90
2024-01-03T08:55:12.829Z,15.20
2024-01-03T08:57:40.167Z,10.60
2024-01-03T09:00:08.213Z,14.20
2024-01-03T09:02:35.522Z,10.30
2024-01-03T09:05:02.797Z,10.60
2024-01-03T09:07:30.097Z,12.30
2024-01-03T09:09:57.343Z,12.70
2024-01-03T09:12:26.075Z,14.50
2024-01-03T09:14:53.501Z,14.20
2024-01-03T09:17:20.843Z,15.80
2024-01-03T09:19:48.298Z,17.00
2024-01-03T09:22:17.385Z,12.40
2024-01-03T09:24:44.917Z,13.50
2024-01-03T09:27:12.288Z,11.00
2024-01-03T09:29:39.678Z,12.10
2024-01-03T09:32:08.771Z,10.40
2024-01-03T09:34:40.675Z,13.60
2024-01-03T09:37:07.993Z,13.20
2024-01-03T09:39:35.416Z,13.50
2024-01-03T09:42:03.189Z,13.40
2024-01-03T09:44:30.712Z,14.20
2024-01-03T09:46:58.183Z,13.90
2024-01-03T09:49:25.705Z,14.40
2024-01-03T09:51:53.758Z,13.50
2024-01-03T09:54:21.024Z,14.70
2024-01-03T09:56:52.845Z,11.90
2024-01-03T09:59:20.613Z,13.80
2024-01-03T10:01:57.795Z,14.20
2024-01-03T10:04:28.456Z,12.40
2024-01-03T10:06:55.978Z,15.30
2024-01-03T10:09:23.476Z,15.60
2024-01-03T10:11:53.332Z,20.70
2024-01-03T10:14:23.076Z,15.40
2024-01-03T10:16:50.535Z,13.80
2024-01-03T10:19:21.200Z,14.50
2024-01-03T10:21:52.922Z,12.70
2024-01-03T10:24:21.696Z,13.20
2024-01-03T10:26:49.890Z,12.90
2024-01-03T10:29:19.019Z,13.40
2024-01-03T10:31:47.626Z,12.90
2024-01-03T10:34:18.922Z,11.40
2024-01-03T10:36:47.198Z,13.20
2024-01-03T10:39:18.963Z,11.20
2024-01-03T10:41:47.783Z,13.50
2024-01-03T10:44:16.478Z,12.50
2024-01-03T10:46:44.611Z,12.10
2024-01-03T10:49:12.904Z,10.00
2024-01-03T10:51:41.457Z,12.30
2024-01-03T10:54:11.071Z,9.20
2024-01-03T10:56:38.941Z,9.50
2024-01-03T10:59:06.786Z,10.90
2024-01-03T11:01:48.764Z,13.70
2024-01-03T11:04:22.665Z,11.80
2024-01-03T11:06:54.954Z,12.70
2024-01-03T11:09:25.055Z,11.10
2024-01-03T11:12:14.594Z,9.60
2024-01-03T11:14:42.219Z,12.00
2024-01-03T11:17:12.653Z,11.60
2024-01-03T11:19:40.318Z,11.80
2024-01-03T11:22:07.973Z,19.30
2024-01-03T11:24:35.336Z,12.40
2024-01-03T11:27:06.599Z,13.20
2024-01-03T11:29:38.828Z,12.40
2024-01-03T11:32:07.937Z,13.20
2024-01-03T11:34:39.384Z,10.20
2024-01-03T11:37:12.981Z,12.20
2024-01-03T11:39:44.988Z,12.10
2024-01-03T11:42:22.716Z,13.30
2024-01-03T11:45:09.462Z,14.80
2024-01-03T11:47:39.454Z,14.70
2024-01-03T11:50:09.354Z,11.60
2024-01-03T11:52:37.830Z,12.90
2024-01-03T11:55:17.552Z,12.60
2024-01-03T11:57:46.100Z,10.20
2024-01-03T12:00:15.146Z,12.20
2024-01-03T12:02:58.745Z,13.00
2024-01-03T12:05:27.669Z,11.90
2024-01-03T12:07:57.081Z,14.90
2024-01-03T12:10:25.353Z,11.50
2024-01-03T12:12:54.221Z,13.00
2024-01-03T12:15:38.057Z,13.00
2024-01-03T12:18:11.166Z,11.60
2024-01-03T12:20:38.745Z,17.80
2024-01-03T12:23:15.132Z,14.40
2024-01-03T12:25:44.655Z,13.10
2024-01-03T12:28:19.244Z,12.30
2024-01-03T12:30:46.631Z,13.60
2024-01-03T12:33:15.606Z,19.20
2024-01-03T12:35:47.493Z,18.40
2024-01-03T12:38:15.915Z,21.00
2024-01-03T12:40:45.155Z,17.30
2024-01-03T12:43:15.963Z,20.70
2024-01-03T12:45:45.477Z,19.80
2024-01-03T12:48:13.351Z,18.40
2024-01-03T12:50:43.342Z,19.80
2024-01-03T12:53:10.922Z,17.90
2024-01-03T12:55:38.393Z,20.40
2024-01-03T12:58:05.695Z,21.70
2024-01-03T13:00:33.041Z,20.90
2024-01-03T13:03:00.416Z,26.30
2024-01-03T13:05:28.010Z,23.30
2024-01-03T13:07:55.419Z,25.90
2024-01-03T13:10:22.849Z,21.70
2024-01-03T13:12:50.705Z,25.90
2024-01-03T13:15:18.168Z,23.90
2024-01-03T13:17:45.796Z,27.30
2024-01-03T13:20:14.666Z,24.20
2024-01-03T13:22:45.276Z,28.40
2024-01-03T13:25:12.565Z,25.90
2024-01-03T13:27:43.086Z,29.20
2024-01-03T13:30:12.704Z,25.20
2024-01-03T13:32:43.013Z,26.60
2024-01-03T13:35:10.596Z,32.10
2024-01-03T13:37:38.161Z,22.10
2024-01-03T13:40:06.775Z,25.10
2024-01-03T13:42:34.121Z,20.50
2024-01-03T13:45:01.507Z,25.40
2024-01-03T13:47:29.078Z,25.50
2024-01-03T13:49:56.540Z,27.00
2024-01-03T13:52:23.862Z,25.80
2024-01-03T13:54:51.171Z,26.90
2024-01-03T13:57:18.447Z,23.50
2024-01-03T13:59:46.779Z,24.30
2024-01-03T14:02:14.413Z,23.80
2024-01-03T14:04:42.119Z,22.40
2024-01-03T14:07:09.523Z,20.50
2024-01-03T14:09:41.278Z,15.60
2024-01-03T14:12:08.914Z,18.90
2024-01-03T14:14:37.547Z,17.60
2024-01-03T14:17:05.827Z,21.60
2024-01-03T14:19:33.419Z,21.40
2024-01-03T14:22:03.833Z,19.00
2024-01-03T14:24:31.797Z,20.20
2024-01-03T14:26:59.169Z,18.80
2024-01-03T14:29:26.516Z,15.80
2024-01-03T14:31:53.936Z,15.30
2024-01-03T14:34:21.333Z,14.70
2024-01-03T14:37:07.542Z,13.20
2024-01-03T14:39:35.889Z,17.90
2024-01-03T14:42:04.287Z,16.00
2024-01-03T14:44:32.233Z,16.00
2024-01-03T14:47:00.519Z,17.70
2024-01-03T14:49:28.503Z,16.40
2024-01-03T14:51:56.457Z,18.80
2024-01-03T14:54:23.704Z,17.40
2024-01-03T14:56:51.035Z,14.20
2024-01-03T14:59:18.400Z,17.70
2024-01-03T15:01:46.003Z,15.30
2024-01-03T15:04:17.271Z,15.50
2024-01-03T15:07:14.325Z,14.60
2024-01-03T15:09:42.221Z,20.10
2024-01-03T15:12:09.585Z,16.20
2024-01-03T15:14:38.499Z,16.00
2024-01-03T15:17:05.982Z,20.80
2024-01-03T15:19:33.402Z,16.20
2024-01-03T15:22:13.816Z,14.10
2024-01-03T15:24:41.105Z,14.80
2024-01-03T15:27:08.450Z,14.00
2024-01-03T15:29:36.093Z,13.00
2024-01-03T15:32:03.634Z,14.30
2024-01-03T15:34:31.183Z,14.30
2024-01-03T15:37:01.171Z,12.00
2024-01-03T15:39:28.675Z,16.80
2024-01-03T15:41:56.244Z,15.30
2024-01-03T15:44:25.292Z,12.00
2024-01-03T15:46:53.856Z,12.30
2024-01-03T15:49:25.919Z,13.20
2024-01-03T15:51:57.517Z,12.80
2024-01-03T15:54:32.380Z,12.70
2024-01-03T15:57:08.660Z,15.90
2024-01-03T15:59:36.648Z,17.30
2024-01-03T16:02:07.371Z,17.10
2024-01-03T16:04:34.903Z,16.40
2024-01-03T16:07:42.009Z,16.50
2024-01-03T16:10:09.850Z,13.30
2024-01-03T16:12:37.159Z,12.00
2024-01-03T16:15:05.212Z,12.90
2024-01-03T16:17:32.681Z,11.60
2024-01-03T16:20:00.235Z,13.30
2024-01-03T16:22:27.696Z,13.00
2024-01-03T16:24:55.011Z,14.00
2024-01-03T16:27:22.458Z,12.80
2024-01-03T16:29:49.959Z,17.60
2024-01-03T16:32:21.576Z,15.40
2024-01-03T16:34:49.380Z,14.60
2024-01-03T16:37:18.143Z,13.40
2024-01-03T16:39:45.435Z,16.10
2024-01-03T16:42:12.819Z,13.30
2024-01-03T16:44:40.261Z,15.10
2024-01-03T16:47:07.742Z,16.60
2024-01-03T16:49:35.228Z,15.40
2024-01-03T16:52:03.001Z,12.40
2024-01-03T16:54:30.351Z,15.50
2024-01-03T16:56:57.809Z,13.70
2024-01-03T16:59:25.628Z,13.70
2024-01-03T17:01:54.178Z,13.70
2024-01-03T17:04:23.567Z,14.20
2024-01-03T17:06:51.057Z,17.20
2024-01-03T17:09:18.625Z,12.20
2024-01-03T17:11:47.503Z,12.60
2024-01-03T17:14:16.600Z,13.00
2024-01-03T17:16:45.121Z,16.30
2024-01-03T17:19:12.627Z,13.90
2024-01-03T17:21:41.032Z,14.00
2024-01-03T17:24:08.569Z,15.50
2024-01-03T17:26:37.456Z,15.30
2024-01-03T17:29:05.468Z,17.70
2024-01-03T17:31:35.996Z,14.50
2024-01-03T17:34:04.326Z,15.70
2024-01-03T17:36:31.954Z,13.50
2024-01-03T17:39:02.364Z,16.10
2024-01-03T17:41:31.212Z,18.30
2024-01-03T17:43:59.903Z,22.30
2024-01-03T17:46:27.612Z,17.60
2024-01-03T17:48:55.429Z,17.00
2024-01-03T17:51:23.376Z,17.30
2024-01-03T17:53:51.602Z,14.00
2024-01-03T17:56:24.457Z,16.70
2024-01-03T17:58:52.322Z,15.50
2024-01-03T18:01:19.982Z,16.90
2024-01-03T18:03:47.822Z,16.40
2024-01-03T18:06:15.691Z,12.60
2024-01-03T18:08:43.248Z,15.20
2024-01-03T18:11:10.669Z,14.30
2024-01-03T18:13:38.627Z,14.70
2024-01-03T18:16:06.368Z,16.70
2024-01-03T18:18:33.903Z,12.90
2024-01-03T18:21:01.631Z,17.10
2024-01-03T18:23:30.816Z,17.20
2024-01-03T18:25:58.173Z,16.40
2024-01-03T18:28:25.749Z,17.00
2024-01-03T18:30:53.779Z,14.50
2024-01-03T18:33:21.283Z,15.70
2024-01-03T18:35:48.929Z,14.90
2024-01-03T18:38:16.385Z,14.60
2024-01-03T18:40:43.636Z,13.60
2024-01-03T18:43:11.218Z,14.90
2024-01-03T18:45:38.835Z,15.00
2024-01-03T18:48:06.907Z,16.10
2024-01-03T18:50:34.485Z,19.20
2024-01-03T18:53:01.894Z,16.00
2024-01-03T18:55:29.241Z,17.20
2024-01-03T18:57:56.829Z,17.60
2024-01-03T19:00:25.493Z,16.40
2024-01-03T19:02:52.882Z,16.80
2024-01-03T19:05:20.432Z,17.70
2024-01-03T19:07:47.913Z,19.50
2024-01-03T19:10:16.131Z,15.00
2024-01-03T19:12:43.567Z,18.20
2024-01-03T19:15:10.980Z,15.30
2024-01-03T19:17:39.080Z,20.00
2024-01-03T19:20:07.226Z,17.00
2024-01-03T19:22:37.252Z,17.30
2024-01-03T19:25:06.682Z,15.90
2024-01-03T19:27:33.980Z,22.30
2024-01-03T19:30:03.434Z,17.80
2024-01-03T19:32:32.754Z,13.80
2024-01-03T19:35:00.476Z,15.10
2024-01-03T19:37:27.771Z,14.10
2024-01-03T19:39:55.114Z,16.40
2024-01-03T19:42:22.607Z,17.30
2024-01-03T19:44:50.062Z,15.70
2024-01-03T19:47:18.225Z,17.50
2024-01-03T19:49:45.789Z,14.50
2024-01-03T19:52:14.132Z,17.10
2024-01-03T19:54:41.737Z,14.20
2024-01-03T19:57:09.269Z,12.20
2024-01-03T19:59:41.225Z,14.00
2024-01-03T20:02:08.632Z,13.60
2024-01-03T20:04:40.910Z,12.00
2024-01-03T20:07:09.117Z,12.60
2024-01-03T20:09:36.580Z,14.60
2024-01-03T20:12:04.681Z,17.60
2024-01-03T20:14:32.242Z,14.60
2024-01-03T20:16:59.547Z,14.20
2024-01-03T20:19:27.238Z,14.10
2024-01-03T20:21:54.977Z,15.20
2024-01-03T20:24:22.408Z,17.10
2024-01-03T20:26:50.367Z,14.70
2024-01-03T20:29:18.543Z,13.60
2024-01-03T20:31:45.817Z,12.50
2024-01-03T20:34:13.294Z,12.60
2024-01-03T20:36:44.822Z,13.20
2024-01-03T20:39:15.994Z,14.20
2024-01-03T20:41:44.275Z,13.60
2024-01-03T20:44:11.704Z,16.50
2024-01-03T20:46:40.194Z,19.60
2024-01-03T20:49:11.130Z,17.00
2024-01-03T20:51:38.768Z,19.80
2024-01-03T20:54:06.126Z,19.30
2024-01-03T20:56:33.593Z,14.50
2024-01-03T20:59:01.760Z,15.20
2024-01-03T21:01:29.197Z,14.20
2024-01-03T21:03:56.779Z,13.80
2024-01-03T21:06:25.137Z,13.60
2024-01-03T21:08:52.922Z,12.90
2024-01-03T21:11:21.007Z,15.80
2024-01-03T21:13:48.472Z,14.70
2024-01-03T21:16:16.165Z,17.80
2024-01-03T21:18:43.854Z,17.00
2024-01-03T21:21:11.374Z,21.00
2024-01-03T21:23:38.764Z,17.80
2024-01-03T21:26:12.622Z,15.50
2024-01-03T21:28:39.997Z,16.30
2024-01-03T21:31:08.179Z,16.30
2024-01-03T21:33:36.823Z,14.50
2024-01-03T21:36:08.602Z,17.90
2024-01-03T21:38:36.804Z,20.90
2024-01-03T21:41:04.356Z,20.70
2024-01-03T21:43:31.623Z,21.20
2024-01-03T21:45:59.033Z,21.80
2024-01-03T21:48:26.366Z,23.10
2024-01-03T21:50:53.870Z,22.30
2024-01-03T21:53:21.435Z,22.00
2024-01-03T21:55:48.646Z,19.10
2024-01-03T21:58:15.943Z,22.80
2024-01-03T22:00:43.300Z,25.50
2024-01-03T22:03:10.630Z,23.40
2024-01-03T22:05:38.070Z,23.30
2024-01-03T22:08:06.550Z,22.80
2024-01-03T22:10:33.894Z,27.40
2024-01-03T22:13:01.380Z,28.50
2024-01-03T22:15:28.775Z,24.40
2024-01-03T22:17:57.646Z,27.60
2024-01-03T22:20:25.107Z,22.40
2024-01-03T22:22:52.532Z,31.10
2024-01-03T22:25:19.870Z,27.10
2024-01-03T22:27:48.277Z,26.60
2024-01-03T22:30:15.873Z,22.10
2024-01-03T22:32:43.703Z,22.90
2024-01-03T22:35:11.099Z,23.80
2024-01-03T22:37:38.525Z,24.40
2024-01-03T22:40:06.606Z,26.20
2024-01-03T22:42:36.398Z,27.10
2024-01-03T22:45:05.891Z,31.80
2024-01-03T22:47:34.036Z,34.20
2024-01-03T22:50:02.526Z,27.90
2024-01-03T22:52:30.555Z,28.00
2024-01-03T22:54:57.887Z,28.20
2024-01-03T22:57:25.315Z,28.40
2024-01-03T22:59:52.838Z,25.50
2024-01-03T23:02:20.215Z,22.70
2024-01-03T23:04:47.530Z,22.60
2024-01-03T23:07:15.027Z,28.70
2024-01-03T23:09:42.398Z,26.00
2024-01-03T23:12:09.679Z,28.90
2024-01-03T23:14:37.067Z,35.20
2024-01-03T23:17:14.910Z,31.80
2024-01-03T23:19:48.112Z,32.30
2024-01-03T23:22:15.924Z,37.40
2024-01-03T23:24:43.563Z,35.90
2024-01-03T23:27:10.918Z,35.70
2024-01-03T23:29:38.313Z,32.70
2024-01-03T23:32:05.848Z,32.30
2024-01-03T23:34:33.209Z,27.20
2024-01-03T23:37:00.586Z,29.90
2024-01-03T23:39:29.087Z,32.80
2024-01-03T23:41:56.758Z,29.00
2024-01-03T23:44:24.241Z,27.10
2024-01-03T23:46:51.536Z,28.50
2024-01-03T23:49:19.094Z,21.50
2024-01-03T23:51:46.562Z,23.30
2024-01-03T23:54:13.905Z,17.60
2024-01-03T23:56:41.291Z,16.70
2024-01-03T23:59:08.649Z,9.90
